Alton, Utah
Current Conditions -  °F | °C
As of 5:53 AM on Friday 31 Oct 2014 (Local Time) from KBCE Reporting Station
Clear Clear  
Wind Chill: 21°   Ceiling: Unl
Heat Index: 26°   Visibility: 10mi
Dew Point: 17°   Wind: 5mph
Humidity: 69%   Direction: NA
Pressure: 30.26"   Gusts: NA
Location:  37.44°N, 112.48°W
Report Text: KBCE 311153Z AUTO VRB04KT 10SM CLR M03/M08 A3026 RMK AO2 SNE00 SLP191 P0000 60000 T10331083 11006 21033 56008 TSNO
Loading
Personal Weather Stations






























Interactive Weather Map New forecast layout! Learn more

10-Day Weather Forecast

Advertisements
Track Severe Weather on mobile